sensor_id;sensor_type;location;lat;lon;timestamp;temperature;humidity
45044;DHT22;30784;48.490;9.688;2023-12-20T00:01:47;9.30;53.90
45044;DHT22;30784;48.490;9.688;2023-12-20T00:04:13;9.30;54.00
45044;DHT22;30784;48.490;9.688;2023-12-20T00:06:38;9.20;54.10
45044;DHT22;30784;48.490;9.688;2023-12-20T00:09:04;9.30;54.30
45044;DHT22;30784;48.490;9.688;2023-12-20T00:11:29;9.20;54.20
45044;DHT22;30784;48.490;9.688;2023-12-20T00:13:55;9.20;54.20
45044;DHT22;30784;48.490;9.688;2023-12-20T00:16:20;9.30;54.40
45044;DHT22;30784;48.490;9.688;2023-12-20T00:18:46;9.30;54.60
45044;DHT22;30784;48.490;9.688;2023-12-20T00:21:11;9.20;54.40
45044;DHT22;30784;48.490;9.688;2023-12-20T00:23:37;9.30;54.50
45044;DHT22;30784;48.490;9.688;2023-12-20T00:26:03;9.30;54.50
45044;DHT22;30784;48.490;9.688;2023-12-20T00:28:28;9.30;54.40
45044;DHT22;30784;48.490;9.688;2023-12-20T00:30:54;9.30;53.80
45044;DHT22;30784;48.490;9.688;2023-12-20T00:33:19;9.20;53.60
45044;DHT22;30784;48.490;9.688;2023-12-20T00:35:45;9.10;53.40
45044;DHT22;30784;48.490;9.688;2023-12-20T00:38:10;9.10;53.40
45044;DHT22;30784;48.490;9.688;2023-12-20T00:40:37;9.00;53.70
45044;DHT22;30784;48.490;9.688;2023-12-20T00:43:03;9.00;53.80
45044;DHT22;30784;48.490;9.688;2023-12-20T00:45:28;8.90;54.20
45044;DHT22;30784;48.490;9.688;2023-12-20T00:47:54;8.90;54.10
45044;DHT22;30784;48.490;9.688;2023-12-20T00:50:19;8.80;54.20
45044;DHT22;30784;48.490;9.688;2023-12-20T00:52:47;8.80;54.30
45044;DHT22;30784;48.490;9.688;2023-12-20T00:55:12;8.80;54.40
45044;DHT22;30784;48.490;9.688;2023-12-20T00:57:38;8.80;54.40
45044;DHT22;30784;48.490;9.688;2023-12-20T01:00:04;8.70;54.20
45044;DHT22;30784;48.490;9.688;2023-12-20T01:02:30;8.70;54.50
45044;DHT22;30784;48.490;9.688;2023-12-20T01:04:55;8.70;54.40
45044;DHT22;30784;48.490;9.688;2023-12-20T01:07:21;8.70;54.30
45044;DHT22;30784;48.490;9.688;2023-12-20T01:09:46;8.70;54.40
45044;DHT22;30784;48.490;9.688;2023-12-20T01:12:12;8.70;54.40
45044;DHT22;30784;48.490;9.688;2023-12-20T01:14:37;8.70;54.30
45044;DHT22;30784;48.490;9.688;2023-12-20T01:17:04;8.60;54.20
45044;DHT22;30784;48.490;9.688;2023-12-20T01:19:30;8.60;54.10
45044;DHT22;30784;48.490;9.688;2023-12-20T01:21:56;8.60;54.20
45044;DHT22;30784;48.490;9.688;2023-12-20T01:24:21;8.60;54.00
45044;DHT22;30784;48.490;9.688;2023-12-20T01:26:47;8.60;54.10
45044;DHT22;30784;48.490;9.688;2023-12-20T01:29:12;8.60;54.20
45044;DHT22;30784;48.490;9.688;2023-12-20T01:31:39;8.50;54.20
45044;DHT22;30784;48.490;9.688;2023-12-20T01:34:06;8.50;54.20
45044;DHT22;30784;48.490;9.688;2023-12-20T01:36:31;8.50;54.20
45044;DHT22;30784;48.490;9.688;2023-12-20T01:38:57;8.50;54.20
45044;DHT22;30784;48.490;9.688;2023-12-20T01:41:22;8.50;54.20
45044;DHT22;30784;48.490;9.688;2023-12-20T01:43:48;8.50;54.10
45044;DHT22;30784;48.490;9.688;2023-12-20T01:46:14;8.50;54.10
45044;DHT22;30784;48.490;9.688;2023-12-20T01:48:40;8.50;54.10
45044;DHT22;30784;48.490;9.688;2023-12-20T01:51:06;8.50;54.10
45044;DHT22;30784;48.490;9.688;2023-12-20T01:53:32;8.50;54.10
45044;DHT22;30784;48.490;9.688;2023-12-20T01:55:58;8.40;54.30
45044;DHT22;30784;48.490;9.688;2023-12-20T01:58:24;8.40;54.30
45044;DHT22;30784;48.490;9.688;2023-12-20T02:00:50;8.40;54.40
45044;DHT22;30784;48.490;9.688;2023-12-20T02:03:16;8.40;54.50
45044;DHT22;30784;48.490;9.688;2023-12-20T02:05:42;8.40;54.50
45044;DHT22;30784;48.490;9.688;2023-12-20T02:08:09;8.40;54.60
45044;DHT22;30784;48.490;9.688;2023-12-20T02:10:35;8.40;54.80
45044;DHT22;30784;48.490;9.688;2023-12-20T02:13:00;8.40;54.80
45044;DHT22;30784;48.490;9.688;2023-12-20T02:15:26;8.30;54.90
45044;DHT22;30784;48.490;9.688;2023-12-20T02:17:52;8.30;55.00
45044;DHT22;30784;48.490;9.688;2023-12-20T02:20:18;8.30;55.00
45044;DHT22;30784;48.490;9.688;2023-12-20T02:22:43;8.30;55.00
45044;DHT22;30784;48.490;9.688;2023-12-20T02:25:09;8.30;55.30
45044;DHT22;30784;48.490;9.688;2023-12-20T02:27:35;8.30;55.20
45044;DHT22;30784;48.490;9.688;2023-12-20T02:30:00;8.20;55.30
45044;DHT22;30784;48.490;9.688;2023-12-20T02:32:26;8.20;55.40
45044;DHT22;30784;48.490;9.688;2023-12-20T02:34:53;8.20;55.40
45044;DHT22;30784;48.490;9.688;2023-12-20T02:37:19;8.20;55.60
45044;DHT22;30784;48.490;9.688;2023-12-20T02:39:44;8.20;55.80
45044;DHT22;30784;48.490;9.688;2023-12-20T02:42:10;8.20;55.90
45044;DHT22;30784;48.490;9.688;2023-12-20T02:44:35;8.20;56.20
45044;DHT22;30784;48.490;9.688;2023-12-20T02:47:02;8.20;56.80
45044;DHT22;30784;48.490;9.688;2023-12-20T02:49:27;8.20;56.90
45044;DHT22;30784;48.490;9.688;2023-12-20T02:51:53;8.20;57.20
45044;DHT22;30784;48.490;9.688;2023-12-20T02:54:18;8.20;57.00
45044;DHT22;30784;48.490;9.688;2023-12-20T02:56:44;8.20;57.20
45044;DHT22;30784;48.490;9.688;2023-12-20T02:59:09;8.20;57.70
45044;DHT22;30784;48.490;9.688;2023-12-20T03:01:35;8.20;58.00
45044;DHT22;30784;48.490;9.688;2023-12-20T03:04:06;8.20;57.80
45044;DHT22;30784;48.490;9.688;2023-12-20T03:06:32;8.20;57.90
45044;DHT22;30784;48.490;9.688;2023-12-20T03:08:57;8.20;58.30
45044;DHT22;30784;48.490;9.688;2023-12-20T03:11:26;8.10;58.10
45044;DHT22;30784;48.490;9.688;2023-12-20T03:13:52;8.10;58.20
45044;DHT22;30784;48.490;9.688;2023-12-20T03:16:18;8.10;58.30
45044;DHT22;30784;48.490;9.688;2023-12-20T03:18:44;8.10;58.30
45044;DHT22;30784;48.490;9.688;2023-12-20T03:21:09;8.10;58.30
45044;DHT22;30784;48.490;9.688;2023-12-20T03:23:35;8.10;58.40
45044;DHT22;30784;48.490;9.688;2023-12-20T03:26:00;8.10;58.40
45044;DHT22;30784;48.490;9.688;2023-12-20T03:28:27;8.10;58.50
45044;DHT22;30784;48.490;9.688;2023-12-20T03:30:53;8.10;58.80
45044;DHT22;30784;48.490;9.688;2023-12-20T03:33:18;8.10;58.90
45044;DHT22;30784;48.490;9.688;2023-12-20T03:35:44;8.20;58.90
45044;DHT22;30784;48.490;9.688;2023-12-20T03:38:09;8.20;59.00
45044;DHT22;30784;48.490;9.688;2023-12-20T03:40:35;8.20;58.90
45044;DHT22;30784;48.490;9.688;2023-12-20T03:43:01;8.20;59.10
45044;DHT22;30784;48.490;9.688;2023-12-20T03:45:26;8.20;59.10
45044;DHT22;30784;48.490;9.688;2023-12-20T03:47:52;8.20;59.30
45044;DHT22;30784;48.490;9.688;2023-12-20T03:50:25;8.20;59.20
45044;DHT22;30784;48.490;9.688;2023-12-20T03:52:51;8.20;59.10
45044;DHT22;30784;48.490;9.688;2023-12-20T03:55:17;8.20;59.30
45044;DHT22;30784;48.490;9.688;2023-12-20T03:57:42;8.20;59.50
45044;DHT22;30784;48.490;9.688;2023-12-20T04:00:08;8.20;59.30
45044;DHT22;30784;48.490;9.688;2023-12-20T04:02:39;8.10;59.50
45044;DHT22;30784;48.490;9.688;2023-12-20T04:05:06;8.10;59.50
45044;DHT22;30784;48.490;9.688;2023-12-20T04:07:32;8.10;59.50
45044;DHT22;30784;48.490;9.688;2023-12-20T04:09:58;8.10;59.60
45044;DHT22;30784;48.490;9.688;2023-12-20T04:12:23;8.10;59.50
45044;DHT22;30784;48.490;9.688;2023-12-20T04:14:49;8.10;59.60
45044;DHT22;30784;48.490;9.688;2023-12-20T04:17:15;8.10;59.50
45044;DHT22;30784;48.490;9.688;2023-12-20T04:19:44;8.00;59.50
45044;DHT22;30784;48.490;9.688;2023-12-20T04:22:09;8.00;59.60
45044;DHT22;30784;48.490;9.688;2023-12-20T04:24:35;8.00;59.70
45044;DHT22;30784;48.490;9.688;2023-12-20T04:27:01;8.00;60.30
45044;DHT22;30784;48.490;9.688;2023-12-20T04:29:27;8.00;59.70
45044;DHT22;30784;48.490;9.688;2023-12-20T04:31:52;7.90;59.60
45044;DHT22;30784;48.490;9.688;2023-12-20T04:34:18;7.90;59.60
45044;DHT22;30784;48.490;9.688;2023-12-20T04:36:44;8.00;59.70
45044;DHT22;30784;48.490;9.688;2023-12-20T04:39:10;7.90;59.50
45044;DHT22;30784;48.490;9.688;2023-12-20T04:41:36;7.90;59.50
45044;DHT22;30784;48.490;9.688;2023-12-20T04:44:01;7.90;59.50
45044;DHT22;30784;48.490;9.688;2023-12-20T04:46:27;7.90;59.70
45044;DHT22;30784;48.490;9.688;2023-12-20T04:48:53;7.80;59.60
45044;DHT22;30784;48.490;9.688;2023-12-20T04:51:19;7.80;59.70
45044;DHT22;30784;48.490;9.688;2023-12-20T04:53:44;7.80;60.30
45044;DHT22;30784;48.490;9.688;2023-12-20T04:56:10;7.80;59.70
45044;DHT22;30784;48.490;9.688;2023-12-20T04:58:35;7.80;59.80
45044;DHT22;30784;48.490;9.688;2023-12-20T05:01:02;7.80;60.10
45044;DHT22;30784;48.490;9.688;2023-12-20T05:03:28;7.80;59.70
45044;DHT22;30784;48.490;9.688;2023-12-20T05:05:54;7.80;59.80
45044;DHT22;30784;48.490;9.688;2023-12-20T05:08:19;7.80;59.70
45044;DHT22;30784;48.490;9.688;2023-12-20T05:10:45;7.80;59.80
45044;DHT22;30784;48.490;9.688;2023-12-20T05:13:11;7.70;59.70
45044;DHT22;30784;48.490;9.688;2023-12-20T05:15:36;7.70;59.70
45044;DHT22;30784;48.490;9.688;2023-12-20T05:18:02;7.70;59.80
45044;DHT22;30784;48.490;9.688;2023-12-20T05:20:27;7.70;59.90
45044;DHT22;30784;48.490;9.688;2023-12-20T05:22:53;7.60;60.00
45044;DHT22;30784;48.490;9.688;2023-12-20T05:25:18;7.60;60.00
45044;DHT22;30784;48.490;9.688;2023-12-20T05:27:44;7.60;60.30
45044;DHT22;30784;48.490;9.688;2023-12-20T05:30:10;7.60;60.40
45044;DHT22;30784;48.490;9.688;2023-12-20T05:32:36;7.60;60.40
45044;DHT22;30784;48.490;9.688;2023-12-20T05:35:01;7.60;60.60
45044;DHT22;30784;48.490;9.688;2023-12-20T05:37:27;7.60;60.70
45044;DHT22;30784;48.490;9.688;2023-12-20T05:39:52;7.60;60.80
45044;DHT22;30784;48.490;9.688;2023-12-20T05:42:18;7.60;60.90
45044;DHT22;30784;48.490;9.688;2023-12-20T05:44:43;7.50;60.80
45044;DHT22;30784;48.490;9.688;2023-12-20T05:47:09;7.50;60.80
45044;DHT22;30784;48.490;9.688;2023-12-20T05:49:34;7.50;61.00
45044;DHT22;30784;48.490;9.688;2023-12-20T05:52:00;7.50;61.10
45044;DHT22;30784;48.490;9.688;2023-12-20T05:54:25;7.50;61.00
45044;DHT22;30784;48.490;9.688;2023-12-20T05:56:51;7.50;61.10
45044;DHT22;30784;48.490;9.688;2023-12-20T05:59:16;7.50;61.20
45044;DHT22;30784;48.490;9.688;2023-12-20T06:01:42;7.50;61.40
45044;DHT22;30784;48.490;9.688;2023-12-20T06:04:07;7.50;61.30
45044;DHT22;30784;48.490;9.688;2023-12-20T06:06:33;7.50;61.40
45044;DHT22;30784;48.490;9.688;2023-12-20T06:08:58;7.50;61.50
45044;DHT22;30784;48.490;9.688;2023-12-20T06:11:24;7.50;61.60
45044;DHT22;30784;48.490;9.688;2023-12-20T06:13:49;7.50;61.60
45044;DHT22;30784;48.490;9.688;2023-12-20T06:16:18;7.50;61.60
45044;DHT22;30784;48.490;9.688;2023-12-20T06:18:43;7.60;61.50
45044;DHT22;30784;48.490;9.688;2023-12-20T06:21:09;7.50;62.10
45044;DHT22;30784;48.490;9.688;2023-12-20T06:23:38;7.50;61.60
45044;DHT22;30784;48.490;9.688;2023-12-20T06:26:04;7.50;61.50
45044;DHT22;30784;48.490;9.688;2023-12-20T06:28:29;7.50;61.50
45044;DHT22;30784;48.490;9.688;2023-12-20T06:30:55;7.60;61.80
45044;DHT22;30784;48.490;9.688;2023-12-20T06:33:22;7.60;61.90
45044;DHT22;30784;48.490;9.688;2023-12-20T06:35:48;7.50;61.70
45044;DHT22;30784;48.490;9.688;2023-12-20T06:38:13;7.60;61.90
45044;DHT22;30784;48.490;9.688;2023-12-20T06:40:39;7.60;62.00
45044;DHT22;30784;48.490;9.688;2023-12-20T06:43:05;7.50;62.00
45044;DHT22;30784;48.490;9.688;2023-12-20T06:45:32;7.50;61.90
45044;DHT22;30784;48.490;9.688;2023-12-20T06:47:57;7.50;62.20
45044;DHT22;30784;48.490;9.688;2023-12-20T06:50:23;7.60;62.00
45044;DHT22;30784;48.490;9.688;2023-12-20T06:52:49;7.60;62.20
45044;DHT22;30784;48.490;9.688;2023-12-20T06:55:15;7.50;62.10
45044;DHT22;30784;48.490;9.688;2023-12-20T06:57:40;7.60;62.30
45044;DHT22;30784;48.490;9.688;2023-12-20T07:00:06;7.60;62.40
45044;DHT22;30784;48.490;9.688;2023-12-20T07:02:33;7.60;62.40
45044;DHT22;30784;48.490;9.688;2023-12-20T07:04:59;7.60;62.20
45044;DHT22;30784;48.490;9.688;2023-12-20T07:07:25;7.60;62.40
45044;DHT22;30784;48.490;9.688;2023-12-20T07:09:51;7.60;62.30
45044;DHT22;30784;48.490;9.688;2023-12-20T07:12:17;7.60;62.40
45044;DHT22;30784;48.490;9.688;2023-12-20T07:14:45;7.60;62.30
45044;DHT22;30784;48.490;9.688;2023-12-20T07:17:10;7.60;62.30
45044;DHT22;30784;48.490;9.688;2023-12-20T07:19:39;7.70;62.40
45044;DHT22;30784;48.490;9.688;2023-12-20T07:22:06;7.70;62.90
45044;DHT22;30784;48.490;9.688;2023-12-20T07:24:31;7.70;62.30
45044;DHT22;30784;48.490;9.688;2023-12-20T07:26:57;7.70;62.20
45044;DHT22;30784;48.490;9.688;2023-12-20T07:29:23;7.70;62.30
45044;DHT22;30784;48.490;9.688;2023-12-20T07:31:48;7.70;62.30
45044;DHT22;30784;48.490;9.688;2023-12-20T07:34:14;7.70;62.40
45044;DHT22;30784;48.490;9.688;2023-12-20T07:36:39;7.70;62.40
45044;DHT22;30784;48.490;9.688;2023-12-20T07:39:05;7.70;62.50
45044;DHT22;30784;48.490;9.688;2023-12-20T07:41:30;7.70;62.50
45044;DHT22;30784;48.490;9.688;2023-12-20T07:43:56;7.70;62.50
45044;DHT22;30784;48.490;9.688;2023-12-20T07:46:22;7.80;62.60
45044;DHT22;30784;48.490;9.688;2023-12-20T07:48:50;7.80;62.50
45044;DHT22;30784;48.490;9.688;2023-12-20T07:51:16;7.80;62.60
45044;DHT22;30784;48.490;9.688;2023-12-20T07:53:41;7.80;62.70
45044;DHT22;30784;48.490;9.688;2023-12-20T07:56:14;7.80;62.70
45044;DHT22;30784;48.490;9.688;2023-12-20T07:58:40;7.80;62.80
45044;DHT22;30784;48.490;9.688;2023-12-20T08:01:06;7.80;62.70
45044;DHT22;30784;48.490;9.688;2023-12-20T08:03:32;7.80;62.90
45044;DHT22;30784;48.490;9.688;2023-12-20T08:05:57;7.70;62.70
45044;DHT22;30784;48.490;9.688;2023-12-20T08:08:25;7.80;63.00
45044;DHT22;30784;48.490;9.688;2023-12-20T08:10:50;7.80;62.90
45044;DHT22;30784;48.490;9.688;2023-12-20T08:13:16;7.80;63.00
45044;DHT22;30784;48.490;9.688;2023-12-20T08:15:41;7.80;63.10
45044;DHT22;30784;48.490;9.688;2023-12-20T08:18:07;7.70;63.00
45044;DHT22;30784;48.490;9.688;2023-12-20T08:20:33;7.70;63.00
45044;DHT22;30784;48.490;9.688;2023-12-20T08:22:58;7.80;63.20
45044;DHT22;30784;48.490;9.688;2023-12-20T08:25:24;7.80;63.10
45044;DHT22;30784;48.490;9.688;2023-12-20T08:27:49;7.80;63.00
45044;DHT22;30784;48.490;9.688;2023-12-20T08:30:15;7.80;62.90
45044;DHT22;30784;48.490;9.688;2023-12-20T08:32:43;7.80;62.90
45044;DHT22;30784;48.490;9.688;2023-12-20T08:35:08;7.80;62.90
45044;DHT22;30784;48.490;9.688;2023-12-20T08:37:34;7.80;62.90
45044;DHT22;30784;48.490;9.688;2023-12-20T08:40:01;7.80;63.00
45044;DHT22;30784;48.490;9.688;2023-12-20T08:42:26;7.80;63.10
45044;DHT22;30784;48.490;9.688;2023-12-20T08:44:56;7.80;63.20
45044;DHT22;30784;48.490;9.688;2023-12-20T08:47:22;7.80;63.10
45044;DHT22;30784;48.490;9.688;2023-12-20T08:49:48;7.80;63.20
45044;DHT22;30784;48.490;9.688;2023-12-20T08:52:13;7.90;63.30
45044;DHT22;30784;48.490;9.688;2023-12-20T08:54:39;7.90;63.30
45044;DHT22;30784;48.490;9.688;2023-12-20T08:57:04;7.90;63.40
45044;DHT22;30784;48.490;9.688;2023-12-20T08:59:32;7.90;63.30
45044;DHT22;30784;48.490;9.688;2023-12-20T09:01:57;7.90;63.30
45044;DHT22;30784;48.490;9.688;2023-12-20T09:04:23;7.90;63.30
45044;DHT22;30784;48.490;9.688;2023-12-20T09:06:49;7.90;63.20
45044;DHT22;30784;48.490;9.688;2023-12-20T09:09:14;7.90;63.30
45044;DHT22;30784;48.490;9.688;2023-12-20T09:11:40;8.00;63.30
45044;DHT22;30784;48.490;9.688;2023-12-20T09:14:06;8.00;63.20
45044;DHT22;30784;48.490;9.688;2023-12-20T09:16:31;8.00;63.00
45044;DHT22;30784;48.490;9.688;2023-12-20T09:18:58;8.00;63.00
45044;DHT22;30784;48.490;9.688;2023-12-20T09:21:23;8.00;63.10
45044;DHT22;30784;48.490;9.688;2023-12-20T09:23:49;8.00;63.20
45044;DHT22;30784;48.490;9.688;2023-12-20T09:26:15;7.90;63.20
45044;DHT22;30784;48.490;9.688;2023-12-20T09:28:40;7.90;63.20
45044;DHT22;30784;48.490;9.688;2023-12-20T09:31:06;8.00;63.30
45044;DHT22;30784;48.490;9.688;2023-12-20T09:33:32;8.00;63.40
45044;DHT22;30784;48.490;9.688;2023-12-20T09:35:58;8.00;63.60
45044;DHT22;30784;48.490;9.688;2023-12-20T09:38:24;8.00;63.50
45044;DHT22;30784;48.490;9.688;2023-12-20T09:40:49;8.00;63.60
45044;DHT22;30784;48.490;9.688;2023-12-20T09:43:18;8.10;63.50
45044;DHT22;30784;48.490;9.688;2023-12-20T09:45:46;8.10;63.50
45044;DHT22;30784;48.490;9.688;2023-12-20T09:48:12;8.10;63.50
45044;DHT22;30784;48.490;9.688;2023-12-20T09:50:40;8.20;63.80
45044;DHT22;30784;48.490;9.688;2023-12-20T09:53:08;8.20;63.80
45044;DHT22;30784;48.490;9.688;2023-12-20T09:55:36;8.30;64.00
45044;DHT22;30784;48.490;9.688;2023-12-20T09:58:01;8.40;63.70
45044;DHT22;30784;48.490;9.688;2023-12-20T10:00:27;8.50;63.30
45044;DHT22;30784;48.490;9.688;2023-12-20T10:03:00;8.50;62.70
45044;DHT22;30784;48.490;9.688;2023-12-20T10:05:30;8.60;62.50
45044;DHT22;30784;48.490;9.688;2023-12-20T10:07:56;8.50;62.20
45044;DHT22;30784;48.490;9.688;2023-12-20T10:10:23;8.50;61.60
45044;DHT22;30784;48.490;9.688;2023-12-20T10:13:06;8.50;61.30
45044;DHT22;30784;48.490;9.688;2023-12-20T10:15:33;8.50;61.30
45044;DHT22;30784;48.490;9.688;2023-12-20T10:17:59;8.40;61.00
45044;DHT22;30784;48.490;9.688;2023-12-20T10:20:25;8.30;60.90
45044;DHT22;30784;48.490;9.688;2023-12-20T10:22:51;8.20;60.50
45044;DHT22;30784;48.490;9.688;2023-12-20T10:25:19;8.20;60.60
45044;DHT22;30784;48.490;9.688;2023-12-20T10:27:45;8.10;60.80
45044;DHT22;30784;48.490;9.688;2023-12-20T10:30:10;8.10;60.50
45044;DHT22;30784;48.490;9.688;2023-12-20T10:32:36;8.10;60.40
45044;DHT22;30784;48.490;9.688;2023-12-20T10:35:02;8.00;59.80
45044;DHT22;30784;48.490;9.688;2023-12-20T10:37:28;8.00;59.90
45044;DHT22;30784;48.490;9.688;2023-12-20T10:39:54;7.90;59.90
45044;DHT22;30784;48.490;9.688;2023-12-20T10:42:26;7.90;59.60
45044;DHT22;30784;48.490;9.688;2023-12-20T10:44:52;7.90;59.90
45044;DHT22;30784;48.490;9.688;2023-12-20T10:47:19;7.80;59.90
45044;DHT22;30784;48.490;9.688;2023-12-20T10:49:45;7.80;60.00
45044;DHT22;30784;48.490;9.688;2023-12-20T10:52:12;7.80;60.20
45044;DHT22;30784;48.490;9.688;2023-12-20T10:54:41;7.80;59.70
45044;DHT22;30784;48.490;9.688;2023-12-20T10:57:07;7.80;59.70
45044;DHT22;30784;48.490;9.688;2023-12-20T10:59:39;7.80;59.50
45044;DHT22;30784;48.490;9.688;2023-12-20T11:02:05;7.80;59.50
45044;DHT22;30784;48.490;9.688;2023-12-20T11:04:47;7.80;59.30
45044;DHT22;30784;48.490;9.688;2023-12-20T11:07:38;7.80;60.00
45044;DHT22;30784;48.490;9.688;2023-12-20T11:10:30;7.70;59.50
45044;DHT22;30784;48.490;9.688;2023-12-20T11:13:23;7.80;59.40
45044;DHT22;30784;48.490;9.688;2023-12-20T11:15:51;7.70;59.50
45044;DHT22;30784;48.490;9.688;2023-12-20T11:18:17;7.70;59.50
45044;DHT22;30784;48.490;9.688;2023-12-20T11:20:43;7.70;59.50
45044;DHT22;30784;48.490;9.688;2023-12-20T11:23:09;7.70;59.20
45044;DHT22;30784;48.490;9.688;2023-12-20T11:26:07;7.70;59.20
45044;DHT22;30784;48.490;9.688;2023-12-20T11:28:32;7.70;59.30
45044;DHT22;30784;48.490;9.688;2023-12-20T11:31:00;7.70;58.80
45044;DHT22;30784;48.490;9.688;2023-12-20T11:35:56;7.70;58.50
45044;DHT22;30784;48.490;9.688;2023-12-20T11:38:22;7.60;58.50
45044;DHT22;30784;48.490;9.688;2023-12-20T11:40:49;7.60;58.80
45044;DHT22;30784;48.490;9.688;2023-12-20T11:43:31;7.60;58.70
45044;DHT22;30784;48.490;9.688;2023-12-20T11:46:05;7.60;58.90
45044;DHT22;30784;48.490;9.688;2023-12-20T11:48:32;7.60;58.30
45044;DHT22;30784;48.490;9.688;2023-12-20T11:50:58;7.50;58.40
45044;DHT22;30784;48.490;9.688;2023-12-20T11:53:23;7.50;58.50
45044;DHT22;30784;48.490;9.688;2023-12-20T11:55:49;7.50;58.60
45044;DHT22;30784;48.490;9.688;2023-12-20T11:58:15;7.50;58.50
45044;DHT22;30784;48.490;9.688;2023-12-20T12:00:42;7.50;58.50
45044;DHT22;30784;48.490;9.688;2023-12-20T12:03:08;7.50;58.70
45044;DHT22;30784;48.490;9.688;2023-12-20T12:05:34;7.50;58.40
45044;DHT22;30784;48.490;9.688;2023-12-20T12:08:01;7.50;58.10
45044;DHT22;30784;48.490;9.688;2023-12-20T12:10:26;7.40;58.00
45044;DHT22;30784;48.490;9.688;2023-12-20T12:12:52;7.40;57.90
45044;DHT22;30784;48.490;9.688;2023-12-20T12:15:18;7.40;57.80
45044;DHT22;30784;48.490;9.688;2023-12-20T12:17:43;7.40;57.70
45044;DHT22;30784;48.490;9.688;2023-12-20T12:20:09;7.40;58.00
45044;DHT22;30784;48.490;9.688;2023-12-20T12:22:35;7.30;58.00
45044;DHT22;30784;48.490;9.688;2023-12-20T12:25:12;7.40;58.10
45044;DHT22;30784;48.490;9.688;2023-12-20T12:27:43;7.30;58.20
45044;DHT22;30784;48.490;9.688;2023-12-20T12:30:09;7.30;58.00
45044;DHT22;30784;48.490;9.688;2023-12-20T12:32:35;7.30;58.20
45044;DHT22;30784;48.490;9.688;2023-12-20T12:35:03;7.30;58.20
45044;DHT22;30784;48.490;9.688;2023-12-20T12:37:33;7.30;58.30
45044;DHT22;30784;48.490;9.688;2023-12-20T12:39:59;7.40;58.60
45044;DHT22;30784;48.490;9.688;2023-12-20T12:42:24;7.40;58.20
45044;DHT22;30784;48.490;9.688;2023-12-20T12:44:54;7.40;58.00
45044;DHT22;30784;48.490;9.688;2023-12-20T12:47:19;7.30;58.00
45044;DHT22;30784;48.490;9.688;2023-12-20T12:49:45;7.30;58.00
45044;DHT22;30784;48.490;9.688;2023-12-20T12:52:10;7.30;57.80
45044;DHT22;30784;48.490;9.688;2023-12-20T12:54:36;7.30;58.00
45044;DHT22;30784;48.490;9.688;2023-12-20T12:57:02;7.20;57.60
45044;DHT22;30784;48.490;9.688;2023-12-20T12:59:27;7.20;57.50
45044;DHT22;30784;48.490;9.688;2023-12-20T13:01:53;7.20;57.30
45044;DHT22;30784;48.490;9.688;2023-12-20T13:04:18;7.20;57.50
45044;DHT22;30784;48.490;9.688;2023-12-20T13:06:44;7.20;57.50
45044;DHT22;30784;48.490;9.688;2023-12-20T13:09:10;7.20;57.20
45044;DHT22;30784;48.490;9.688;2023-12-20T13:11:35;7.20;57.30
45044;DHT22;30784;48.490;9.688;2023-12-20T13:14:01;7.10;57.00
45044;DHT22;30784;48.490;9.688;2023-12-20T13:16:26;7.10;56.90
45044;DHT22;30784;48.490;9.688;2023-12-20T13:18:52;7.10;56.80
45044;DHT22;30784;48.490;9.688;2023-12-20T13:21:18;7.10;56.90
45044;DHT22;30784;48.490;9.688;2023-12-20T13:23:43;7.10;57.00
45044;DHT22;30784;48.490;9.688;2023-12-20T13:26:09;7.10;56.90
45044;DHT22;30784;48.490;9.688;2023-12-20T13:28:34;7.10;57.00
45044;DHT22;30784;48.490;9.688;2023-12-20T13:31:00;7.10;57.00
45044;DHT22;30784;48.490;9.688;2023-12-20T13:33:25;7.10;57.10
45044;DHT22;30784;48.490;9.688;2023-12-20T13:35:51;7.00;57.10
45044;DHT22;30784;48.490;9.688;2023-12-20T13:38:17;7.00;57.20
45044;DHT22;30784;48.490;9.688;2023-12-20T13:40:42;7.10;57.40
45044;DHT22;30784;48.490;9.688;2023-12-20T13:43:08;7.00;57.40
45044;DHT22;30784;48.490;9.688;2023-12-20T13:45:35;7.00;57.20
45044;DHT22;30784;48.490;9.688;2023-12-20T13:48:01;7.00;57.10
45044;DHT22;30784;48.490;9.688;2023-12-20T13:50:26;7.00;56.80
45044;DHT22;30784;48.490;9.688;2023-12-20T13:52:52;7.00;56.80
45044;DHT22;30784;48.490;9.688;2023-12-20T13:55:18;6.90;56.30
45044;DHT22;30784;48.490;9.688;2023-12-20T13:57:47;6.90;56.60
45044;DHT22;30784;48.490;9.688;2023-12-20T14:00:14;6.90;56.30
45044;DHT22;30784;48.490;9.688;2023-12-20T14:02:41;6.90;56.30
45044;DHT22;30784;48.490;9.688;2023-12-20T14:05:06;6.90;56.20
45044;DHT22;30784;48.490;9.688;2023-12-20T14:07:32;6.90;56.30
45044;DHT22;30784;48.490;9.688;2023-12-20T14:09:57;6.90;56.20
45044;DHT22;30784;48.490;9.688;2023-12-20T14:12:24;6.90;56.10
45044;DHT22;30784;48.490;9.688;2023-12-20T14:14:50;6.90;55.90
45044;DHT22;30784;48.490;9.688;2023-12-20T14:17:15;6.90;55.80
45044;DHT22;30784;48.490;9.688;2023-12-20T14:19:41;6.90;56.10
45044;DHT22;30784;48.490;9.688;2023-12-20T14:22:06;6.80;56.10
45044;DHT22;30784;48.490;9.688;2023-12-20T14:24:32;6.80;56.00
45044;DHT22;30784;48.490;9.688;2023-12-20T14:26:57;6.90;56.00
45044;DHT22;30784;48.490;9.688;2023-12-20T14:29:23;6.90;56.20
45044;DHT22;30784;48.490;9.688;2023-12-20T14:31:49;6.90;55.90
45044;DHT22;30784;48.490;9.688;2023-12-20T14:34:15;6.90;55.80
45044;DHT22;30784;48.490;9.688;2023-12-20T14:36:41;6.90;55.90
45044;DHT22;30784;48.490;9.688;2023-12-20T14:39:07;6.90;55.70
45044;DHT22;30784;48.490;9.688;2023-12-20T14:41:34;6.90;55.90
45044;DHT22;30784;48.490;9.688;2023-12-20T14:43:59;6.90;55.90
45044;DHT22;30784;48.490;9.688;2023-12-20T14:46:25;6.90;55.90
45044;DHT22;30784;48.490;9.688;2023-12-20T14:48:51;6.90;55.90
45044;DHT22;30784;48.490;9.688;2023-12-20T14:51:16;6.90;55.90
45044;DHT22;30784;48.490;9.688;2023-12-20T14:53:42;6.90;55.90
45044;DHT22;30784;48.490;9.688;2023-12-20T14:56:07;6.90;55.90
45044;DHT22;30784;48.490;9.688;2023-12-20T14:58:33;6.90;55.90
45044;DHT22;30784;48.490;9.688;2023-12-20T15:00:59;6.90;55.80
45044;DHT22;30784;48.490;9.688;2023-12-20T15:03:25;6.90;55.80
45044;DHT22;30784;48.490;9.688;2023-12-20T15:05:50;6.80;55.90
45044;DHT22;30784;48.490;9.688;2023-12-20T15:08:16;6.80;56.00
45044;DHT22;30784;48.490;9.688;2023-12-20T15:10:41;6.80;56.00
45044;DHT22;30784;48.490;9.688;2023-12-20T15:13:07;6.80;56.10
45044;DHT22;30784;48.490;9.688;2023-12-20T15:15:32;6.80;56.10
45044;DHT22;30784;48.490;9.688;2023-12-20T15:17:59;6.80;56.10
45044;DHT22;30784;48.490;9.688;2023-12-20T15:20:25;6.80;56.20
45044;DHT22;30784;48.490;9.688;2023-12-20T15:22:50;6.90;56.30
45044;DHT22;30784;48.490;9.688;2023-12-20T15:25:16;6.90;56.40
45044;DHT22;30784;48.490;9.688;2023-12-20T15:27:47;6.90;56.40
45044;DHT22;30784;48.490;9.688;2023-12-20T15:30:18;6.80;56.80
45044;DHT22;30784;48.490;9.688;2023-12-20T15:32:44;6.80;56.40
45044;DHT22;30784;48.490;9.688;2023-12-20T15:35:09;6.80;56.50
45044;DHT22;30784;48.490;9.688;2023-12-20T15:37:35;6.80;56.50
45044;DHT22;30784;48.490;9.688;2023-12-20T15:40:00;6.80;56.60
45044;DHT22;30784;48.490;9.688;2023-12-20T15:42:26;6.80;56.70